createdAt,value
2023-05-09T00:01:21.148Z,6.67
2023-05-09T00:03:51.837Z,6.70
2023-05-09T00:06:20.049Z,6.74
2023-05-09T00:08:48.186Z,6.78
2023-05-09T00:11:16.239Z,6.84
2023-05-09T00:13:44.551Z,6.86
2023-05-09T00:16:12.577Z,6.88
2023-05-09T00:18:42.574Z,6.88
2023-05-09T00:21:11.308Z,6.86
2023-05-09T00:23:39.275Z,6.82
2023-05-09T00:26:07.269Z,6.79
2023-05-09T00:28:35.362Z,6.77
2023-05-09T00:31:04.560Z,6.76
2023-05-09T00:33:32.447Z,6.76
2023-05-09T00:36:00.670Z,6.77
2023-05-09T00:38:29.942Z,6.77
2023-05-09T00:40:58.116Z,6.78
2023-05-09T00:43:26.476Z,6.79
2023-05-09T00:45:54.555Z,6.82
2023-05-09T00:48:22.832Z,6.83
2023-05-09T00:50:53.337Z,6.86
2023-05-09T00:53:21.775Z,6.89
2023-05-09T00:55:49.800Z,6.92
2023-05-09T00:58:19.561Z,6.95
2023-05-09T01:00:48.233Z,6.98
2023-05-09T01:03:16.556Z,7.01
2023-05-09T01:05:57.247Z,6.99
2023-05-09T01:09:03.051Z,6.97
2023-05-09T01:11:58.018Z,6.97
2023-05-09T01:14:52.344Z,6.97
2023-05-09T01:17:49.753Z,6.96
2023-05-09T01:20:34.362Z,6.94
2023-05-09T01:23:40.142Z,6.93
2023-05-09T01:26:36.786Z,6.89
2023-05-09T01:29:29.845Z,6.89
2023-05-09T01:31:59.697Z,6.91
2023-05-09T01:34:29.584Z,6.94
2023-05-09T01:37:01.082Z,6.97
2023-05-09T01:39:33.196Z,6.99
2023-05-09T01:42:04.912Z,7.03
2023-05-09T01:44:42.777Z,7.09
2023-05-09T01:47:12.156Z,7.12
2023-05-09T01:49:42.152Z,7.13
2023-05-09T01:52:14.808Z,7.09
2023-05-09T01:54:44.945Z,7.04
2023-05-09T01:57:15.723Z,7.01
2023-05-09T01:59:46.652Z,6.98
2023-05-09T02:02:15.737Z,6.93
2023-05-09T02:04:46.691Z,6.86
2023-05-09T02:07:15.573Z,6.81
2023-05-09T02:09:46.470Z,6.78
2023-05-09T02:12:14.542Z,6.78
2023-05-09T02:14:42.701Z,6.76
2023-05-09T02:17:11.540Z,6.77
2023-05-09T02:19:39.521Z,6.77
2023-05-09T02:22:07.463Z,6.77
2023-05-09T02:24:36.230Z,6.77
2023-05-09T02:27:05.542Z,6.72
2023-05-09T02:29:41.907Z,6.67
2023-05-09T02:32:17.111Z,6.63
2023-05-09T02:34:46.296Z,6.59
2023-05-09T02:37:15.165Z,6.57
2023-05-09T02:39:44.231Z,6.54
2023-05-09T02:42:16.049Z,6.56
2023-05-09T02:44:44.081Z,6.59
2023-05-09T02:47:12.111Z,6.61
2023-05-09T02:49:40.241Z,6.62
2023-05-09T02:52:08.389Z,6.65
2023-05-09T02:54:36.449Z,6.65
2023-05-09T02:57:04.874Z,6.61
2023-05-09T02:59:33.478Z,6.56
2023-05-09T03:02:03.493Z,6.53
2023-05-09T03:04:31.817Z,6.50
2023-05-09T03:07:00.868Z,6.47
2023-05-09T03:09:32.476Z,6.45
2023-05-09T03:12:02.599Z,6.42
2023-05-09T03:14:31.607Z,6.39
2023-05-09T03:17:00.189Z,6.38
2023-05-09T03:19:34.232Z,6.37
2023-05-09T03:22:05.126Z,6.38
2023-05-09T03:24:35.237Z,6.40
2023-05-09T03:27:03.850Z,6.42
2023-05-09T03:29:31.864Z,6.45
2023-05-09T03:32:00.942Z,6.49
2023-05-09T03:34:28.886Z,6.53
2023-05-09T03:36:57.423Z,6.58
2023-05-09T03:39:25.929Z,6.60
2023-05-09T03:41:56.695Z,6.60
2023-05-09T03:44:24.689Z,6.61
2023-05-09T03:46:52.796Z,6.61
2023-05-09T03:49:20.815Z,6.58
2023-05-09T03:51:51.380Z,6.56
2023-05-09T03:54:19.529Z,6.52
2023-05-09T03:56:48.266Z,6.49
2023-05-09T03:59:16.587Z,6.44
2023-05-09T04:01:45.377Z,6.38
2023-05-09T04:04:13.950Z,6.36
2023-05-09T04:06:42.308Z,6.36
2023-05-09T04:09:10.902Z,6.37
2023-05-09T04:11:42.234Z,6.38
2023-05-09T04:14:11.960Z,6.41
2023-05-09T04:16:40.143Z,6.49
2023-05-09T04:19:08.237Z,6.54
2023-05-09T04:21:36.910Z,6.59
2023-05-09T04:24:06.039Z,6.67
2023-05-09T04:26:39.309Z,6.79
2023-05-09T04:29:09.896Z,6.93
2023-05-09T04:31:37.932Z,7.05
2023-05-09T04:34:06.706Z,7.16
2023-05-09T04:36:35.990Z,7.22
2023-05-09T04:39:05.543Z,7.21
2023-05-09T04:41:34.208Z,7.22
2023-05-09T04:44:03.593Z,7.27
2023-05-09T04:46:31.603Z,7.37
2023-05-09T04:48:59.640Z,7.39
2023-05-09T04:51:27.812Z,7.47
2023-05-09T04:53:55.850Z,7.59
2023-05-09T04:56:27.144Z,7.71
2023-05-09T04:58:57.947Z,7.82
2023-05-09T05:01:26.997Z,7.92
2023-05-09T05:03:55.798Z,8.04
2023-05-09T05:06:24.124Z,8.13
2023-05-09T05:08:52.033Z,8.16
2023-05-09T05:11:20.708Z,8.25
2023-05-09T05:13:48.986Z,8.35
2023-05-09T05:16:17.643Z,8.46
2023-05-09T05:18:46.133Z,8.51
2023-05-09T05:21:16.410Z,8.53
2023-05-09T05:23:44.688Z,8.58
2023-05-09T05:26:12.901Z,8.64
2023-05-09T05:28:41.499Z,8.71
2023-05-09T05:31:09.602Z,8.74
2023-05-09T05:33:37.581Z,8.77
2023-05-09T05:36:06.531Z,8.83
2023-05-09T05:38:34.596Z,8.87
2023-05-09T05:41:02.780Z,8.88
2023-05-09T05:43:31.554Z,8.92
2023-05-09T05:45:59.549Z,9.00
2023-05-09T05:48:28.978Z,9.14
2023-05-09T05:50:57.030Z,9.30
2023-05-09T05:53:27.579Z,9.44
2023-05-09T05:55:55.831Z,9.57
2023-05-09T05:58:24.830Z,9.66
2023-05-09T06:00:53.318Z,9.80
2023-05-09T06:03:21.992Z,9.96
2023-05-09T06:06:08.934Z,10.13
2023-05-09T06:08:37.547Z,10.31
2023-05-09T06:11:06.313Z,10.45
2023-05-09T06:13:34.757Z,10.60
2023-05-09T06:16:18.476Z,10.73
2023-05-09T06:18:50.526Z,10.89
2023-05-09T06:21:21.338Z,11.05
2023-05-09T06:24:05.885Z,11.24
2023-05-09T06:26:37.364Z,11.39
2023-05-09T06:29:08.633Z,11.57
2023-05-09T06:31:39.105Z,11.69
2023-05-09T06:34:08.265Z,11.77
2023-05-09T06:36:36.547Z,11.82
2023-05-09T06:39:05.015Z,11.80
2023-05-09T06:41:33.514Z,11.78
2023-05-09T06:44:02.789Z,11.84
2023-05-09T06:46:31.121Z,11.80
2023-05-09T06:49:01.857Z,11.88
2023-05-09T06:51:30.099Z,11.96
2023-05-09T06:53:58.518Z,12.06
2023-05-09T06:56:27.133Z,12.09
2023-05-09T06:58:55.476Z,12.17
2023-05-09T07:01:24.082Z,12.22
2023-05-09T07:03:52.548Z,12.14
2023-05-09T07:06:20.993Z,12.03
2023-05-09T07:08:49.785Z,12.12
2023-05-09T07:11:18.732Z,12.52
2023-05-09T07:13:47.239Z,13.00
2023-05-09T07:16:16.245Z,13.41
2023-05-09T07:18:44.806Z,13.77
2023-05-09T07:21:13.141Z,14.17
2023-05-09T07:23:41.328Z,14.37
2023-05-09T07:26:09.345Z,14.50
2023-05-09T07:28:37.905Z,14.63
2023-05-09T07:31:06.505Z,14.64
2023-05-09T07:33:34.819Z,14.74
2023-05-09T07:36:03.047Z,15.09
2023-05-09T07:38:31.265Z,15.24
2023-05-09T07:40:59.644Z,15.39
2023-05-09T07:43:27.914Z,15.67
2023-05-09T07:45:56.413Z,15.62
2023-05-09T07:48:24.748Z,15.32
2023-05-09T07:50:52.845Z,15.29
2023-05-09T07:53:21.326Z,15.47
2023-05-09T07:55:50.344Z,15.88
2023-05-09T07:58:18.602Z,16.30
2023-05-09T08:00:46.623Z,16.53
2023-05-09T08:03:15.027Z,16.76
2023-05-09T08:05:43.562Z,17.00
2023-05-09T08:08:11.708Z,16.88
2023-05-09T08:10:39.964Z,16.46
2023-05-09T08:13:08.387Z,16.29
2023-05-09T08:15:36.937Z,16.30
2023-05-09T08:18:06.630Z,16.46
2023-05-09T08:20:34.979Z,16.19
2023-05-09T08:23:03.444Z,15.85
2023-05-09T08:25:32.033Z,15.54
2023-05-09T08:28:00.326Z,15.54
2023-05-09T08:30:29.700Z,15.50
2023-05-09T08:32:57.957Z,15.57
2023-05-09T08:35:26.463Z,15.54
2023-05-09T08:37:54.657Z,15.28
2023-05-09T08:40:22.824Z,15.21
2023-05-09T08:42:51.218Z,15.08
2023-05-09T08:45:25.972Z,14.86
2023-05-09T08:47:55.227Z,14.71
2023-05-09T08:50:24.151Z,14.80
2023-05-09T08:52:53.231Z,14.97
2023-05-09T08:55:21.980Z,14.95
2023-05-09T08:57:50.273Z,14.74
2023-05-09T09:00:21.190Z,14.50
2023-05-09T09:02:50.074Z,14.36
2023-05-09T09:05:34.619Z,14.29
2023-05-09T09:08:08.318Z,14.26
2023-05-09T09:10:41.616Z,14.46
2023-05-09T09:13:11.659Z,14.76
2023-05-09T09:15:43.864Z,14.73
2023-05-09T09:18:21.134Z,14.65
2023-05-09T09:20:57.962Z,14.86
2023-05-09T09:23:29.057Z,14.97
2023-05-09T09:26:00.087Z,14.85
2023-05-09T09:28:29.124Z,14.61
2023-05-09T09:30:57.589Z,14.48
2023-05-09T09:33:27.633Z,14.57
2023-05-09T09:35:57.521Z,14.78
2023-05-09T09:38:26.950Z,15.04
2023-05-09T09:40:56.325Z,15.16
2023-05-09T09:43:32.202Z,15.07
2023-05-09T09:46:05.171Z,14.96
2023-05-09T09:48:35.832Z,15.00
2023-05-09T09:51:11.916Z,15.04
2023-05-09T09:53:41.584Z,15.09
2023-05-09T09:56:10.930Z,15.10
2023-05-09T09:58:39.225Z,15.34
2023-05-09T10:01:16.984Z,15.50
2023-05-09T10:03:46.797Z,15.38
2023-05-09T10:06:16.818Z,15.13
2023-05-09T10:08:52.604Z,15.18
2023-05-09T10:11:23.619Z,15.22
2023-05-09T10:13:52.669Z,15.15
2023-05-09T10:16:25.915Z,15.26
2023-05-09T10:19:05.572Z,15.43
2023-05-09T10:21:36.231Z,15.23
2023-05-09T10:24:08.487Z,15.03
2023-05-09T10:26:41.905Z,14.99
2023-05-09T10:29:13.369Z,15.14
2023-05-09T10:31:44.645Z,15.19
2023-05-09T10:34:14.264Z,15.09
2023-05-09T10:36:43.815Z,15.03
2023-05-09T10:39:12.504Z,15.03
2023-05-09T10:41:41.023Z,15.09
2023-05-09T10:44:10.644Z,15.35
2023-05-09T10:46:39.585Z,15.44
2023-05-09T10:49:08.787Z,15.44
2023-05-09T10:51:37.518Z,15.35
2023-05-09T10:54:16.649Z,15.18
2023-05-09T10:56:44.831Z,15.31
2023-05-09T10:59:37.873Z,15.59
2023-05-09T11:02:11.976Z,15.71
2023-05-09T11:04:40.924Z,15.99
2023-05-09T11:07:27.355Z,16.16
2023-05-09T11:10:10.341Z,16.19
2023-05-09T11:12:59.255Z,16.17
2023-05-09T11:15:28.208Z,16.10
2023-05-09T11:18:26.320Z,15.90
2023-05-09T11:20:55.559Z,15.81
2023-05-09T11:23:30.256Z,15.87
2023-05-09T11:26:09.194Z,15.98
2023-05-09T11:28:39.277Z,15.91
2023-05-09T11:31:18.998Z,15.78
2023-05-09T11:33:55.289Z,15.70
2023-05-09T11:36:34.025Z,15.73
2023-05-09T11:39:11.733Z,15.88
2023-05-09T11:41:50.080Z,16.05
2023-05-09T11:44:21.071Z,16.22
2023-05-09T11:46:49.684Z,16.48
2023-05-09T11:49:19.726Z,16.73
2023-05-09T11:51:48.212Z,17.06
2023-05-09T11:54:16.431Z,17.30
2023-05-09T11:56:45.294Z,17.24
2023-05-09T11:59:15.950Z,17.15
2023-05-09T12:01:44.297Z,16.98
2023-05-09T12:04:13.218Z,16.95
2023-05-09T12:06:49.406Z,17.04
2023-05-09T12:09:20.132Z,16.94
2023-05-09T12:11:50.235Z,16.66
2023-05-09T12:14:28.715Z,16.38
2023-05-09T12:16:57.546Z,16.13
2023-05-09T12:19:26.967Z,16.00
2023-05-09T12:22:00.578Z,16.04
2023-05-09T12:24:31.850Z,15.99
2023-05-09T12:27:00.817Z,15.94
2023-05-09T12:29:31.215Z,15.89
2023-05-09T12:32:00.800Z,15.69
2023-05-09T12:34:30.675Z,15.59
2023-05-09T12:37:00.521Z,15.69
2023-05-09T12:39:29.523Z,15.78
2023-05-09T12:42:01.919Z,15.76
2023-05-09T12:44:30.868Z,15.80
2023-05-09T12:47:03.346Z,15.95
2023-05-09T12:49:32.708Z,16.05
2023-05-09T12:52:03.793Z,16.14
2023-05-09T12:54:33.090Z,16.13
2023-05-09T12:57:03.287Z,16.19
2023-05-09T12:59:31.814Z,16.33
2023-05-09T13:02:02.089Z,16.37
2023-05-09T13:04:30.486Z,16.28
2023-05-09T13:07:00.222Z,16.15
2023-05-09T13:09:28.707Z,16.06
2023-05-09T13:11:57.262Z,16.02
2023-05-09T13:14:25.554Z,16.00
2023-05-09T13:16:54.264Z,15.95
2023-05-09T13:19:22.618Z,15.77
2023-05-09T13:21:52.616Z,15.55
2023-05-09T13:24:20.967Z,15.43
2023-05-09T13:26:49.382Z,15.32
2023-05-09T13:29:17.765Z,15.20
2023-05-09T13:31:46.406Z,15.16
2023-05-09T13:34:14.701Z,15.10
2023-05-09T13:36:43.289Z,15.16
2023-05-09T13:39:12.188Z,15.24
2023-05-09T13:41:40.619Z,15.26
2023-05-09T13:44:09.064Z,15.33
2023-05-09T13:46:37.560Z,15.41
2023-05-09T13:49:06.109Z,15.49
2023-05-09T13:51:34.798Z,15.47
2023-05-09T13:54:06.010Z,15.52
2023-05-09T13:56:34.814Z,15.61
2023-05-09T13:59:03.286Z,15.61
2023-05-09T14:01:31.750Z,15.62
2023-05-09T14:04:01.047Z,15.67
2023-05-09T14:06:30.060Z,15.65
2023-05-09T14:08:59.470Z,15.70
2023-05-09T14:11:28.299Z,15.75
2023-05-09T14:13:57.081Z,15.76
2023-05-09T14:16:25.621Z,15.76
2023-05-09T14:18:54.172Z,15.81
2023-05-09T14:21:22.707Z,15.75
2023-05-09T14:23:51.828Z,15.71
2023-05-09T14:26:19.994Z,15.73
2023-05-09T14:28:48.453Z,15.65
2023-05-09T14:31:17.350Z,15.60
2023-05-09T14:33:46.344Z,15.47
2023-05-09T14:36:14.784Z,15.30
2023-05-09T14:38:43.377Z,15.21
2023-05-09T14:41:11.758Z,15.15
2023-05-09T14:43:40.413Z,15.17
2023-05-09T14:46:08.903Z,15.22
2023-05-09T14:48:37.402Z,15.26
2023-05-09T14:51:06.007Z,15.24
2023-05-09T14:53:40.052Z,15.28
2023-05-09T14:56:09.600Z,15.25
2023-05-09T14:58:37.873Z,15.25
2023-05-09T15:01:06.639Z,15.24
2023-05-09T15:03:35.504Z,15.27
2023-05-09T15:06:04.176Z,15.33
2023-05-09T15:08:34.340Z,15.40
2023-05-09T15:11:02.827Z,15.44
2023-05-09T15:13:31.514Z,15.53
2023-05-09T15:16:00.292Z,15.67
2023-05-09T15:18:28.966Z,15.76
2023-05-09T15:20:57.733Z,15.77
2023-05-09T15:23:26.172Z,15.72
2023-05-09T15:25:54.591Z,15.72
2023-05-09T15:28:23.001Z,15.80
2023-05-09T15:30:51.419Z,15.86
2023-05-09T15:33:19.724Z,15.82
2023-05-09T15:35:49.510Z,15.86
2023-05-09T15:38:18.133Z,15.84
2023-05-09T15:40:46.342Z,15.76
2023-05-09T15:43:14.819Z,15.65
2023-05-09T15:45:46.776Z,15.43
2023-05-09T15:48:16.456Z,15.29
2023-05-09T15:50:45.828Z,15.14
2023-05-09T15:53:15.813Z,15.01
2023-05-09T15:55:44.880Z,14.89
2023-05-09T15:58:14.358Z,14.78
2023-05-09T16:00:43.214Z,14.78
2023-05-09T16:03:12.155Z,14.85
2023-05-09T16:05:41.243Z,14.83
2023-05-09T16:08:09.416Z,14.79
2023-05-09T16:10:37.688Z,14.78
2023-05-09T16:13:05.832Z,14.76
2023-05-09T16:15:34.168Z,14.72
2023-05-09T16:18:02.232Z,14.69
2023-05-09T16:20:30.419Z,14.65
2023-05-09T16:22:58.813Z,14.61
2023-05-09T16:25:26.966Z,14.51
2023-05-09T16:27:55.442Z,14.39
2023-05-09T16:30:24.248Z,14.18
2023-05-09T16:32:53.227Z,13.96
2023-05-09T16:35:22.135Z,13.80
2023-05-09T16:37:50.198Z,13.69
2023-05-09T16:40:19.577Z,13.60
2023-05-09T16:42:48.108Z,13.52
2023-05-09T16:45:16.386Z,13.43
2023-05-09T16:47:44.613Z,13.33
2023-05-09T16:50:12.789Z,13.26
2023-05-09T16:52:40.785Z,13.21
2023-05-09T16:55:09.185Z,13.15
2023-05-09T16:57:37.206Z,13.12
2023-05-09T17:00:08.026Z,13.08
2023-05-09T17:02:37.233Z,13.05
2023-05-09T17:05:05.708Z,13.00
2023-05-09T17:07:33.757Z,12.95
2023-05-09T17:10:02.041Z,12.92
2023-05-09T17:12:30.661Z,12.89
2023-05-09T17:14:58.804Z,12.85
2023-05-09T17:17:26.906Z,12.80
2023-05-09T17:19:55.070Z,12.74
2023-05-09T17:22:23.453Z,12.69
2023-05-09T17:24:51.520Z,12.65
2023-05-09T17:27:19.820Z,12.58
2023-05-09T17:29:48.331Z,12.52
2023-05-09T17:32:16.723Z,12.45
2023-05-09T17:34:44.925Z,12.36
2023-05-09T17:37:13.166Z,12.28
2023-05-09T17:39:42.292Z,12.19
2023-05-09T17:42:12.165Z,12.12
2023-05-09T17:44:43.706Z,12.03
2023-05-09T17:47:14.303Z,11.97
2023-05-09T17:49:42.753Z,11.92
2023-05-09T17:52:11.225Z,11.86
2023-05-09T17:54:39.352Z,11.79
2023-05-09T17:57:07.520Z,11.72
2023-05-09T17:59:35.750Z,11.65
2023-05-09T18:02:04.088Z,11.58
2023-05-09T18:04:34.389Z,11.52
2023-05-09T18:07:02.964Z,11.46
2023-05-09T18:09:31.208Z,11.40
2023-05-09T18:11:59.339Z,11.34
2023-05-09T18:14:27.402Z,11.29
2023-05-09T18:16:55.705Z,11.23
2023-05-09T18:19:23.648Z,11.18
2023-05-09T18:21:51.711Z,11.11
2023-05-09T18:24:21.398Z,11.04
2023-05-09T18:26:49.495Z,10.98
2023-05-09T18:29:17.512Z,10.94
2023-05-09T18:31:45.746Z,10.91
2023-05-09T18:34:13.711Z,10.86
2023-05-09T18:36:42.054Z,10.80
2023-05-09T18:39:11.887Z,10.74
2023-05-09T18:41:40.119Z,10.67
2023-05-09T18:44:08.779Z,10.60
2023-05-09T18:46:38.157Z,10.53
2023-05-09T18:49:06.372Z,10.44
2023-05-09T18:51:35.906Z,10.35
2023-05-09T18:54:04.171Z,10.27
2023-05-09T18:56:38.546Z,10.20
2023-05-09T18:59:07.775Z,10.13
2023-05-09T19:01:36.251Z,10.06
2023-05-09T19:04:04.589Z,10.01
2023-05-09T19:06:32.598Z,9.96
2023-05-09T19:09:02.973Z,9.92
2023-05-09T19:11:31.167Z,9.85
2023-05-09T19:13:59.374Z,9.79
2023-05-09T19:16:27.461Z,9.72
2023-05-09T19:18:56.767Z,9.68
2023-05-09T19:21:25.849Z,9.65
2023-05-09T19:23:53.800Z,9.63
2023-05-09T19:26:22.270Z,9.61
2023-05-09T19:28:50.412Z,9.61
2023-05-09T19:31:20.696Z,9.62
2023-05-09T19:33:49.855Z,9.61
2023-05-09T19:36:18.649Z,9.60
2023-05-09T19:38:46.677Z,9.59
2023-05-09T19:41:15.111Z,9.59
2023-05-09T19:43:43.115Z,9.60
2023-05-09T19:46:11.214Z,9.60
2023-05-09T19:48:39.153Z,9.59
2023-05-09T19:51:08.931Z,9.57
2023-05-09T19:53:36.953Z,9.55
2023-05-09T19:56:08.045Z,9.52
2023-05-09T19:58:37.099Z,9.50
2023-05-09T20:01:07.165Z,9.46
2023-05-09T20:03:37.223Z,9.42
2023-05-09T20:06:05.345Z,9.37
2023-05-09T20:08:33.998Z,9.31
2023-05-09T20:11:01.945Z,9.25
2023-05-09T20:13:29.962Z,9.18
2023-05-09T20:15:59.261Z,9.12
2023-05-09T20:18:27.245Z,9.04
2023-05-09T20:20:55.047Z,8.96
2023-05-09T20:23:22.912Z,8.87
2023-05-09T20:25:50.715Z,8.80
2023-05-09T20:28:20.549Z,8.73
2023-05-09T20:30:50.007Z,8.66
2023-05-09T20:33:17.913Z,8.62
2023-05-09T20:35:46.173Z,8.57
2023-05-09T20:38:14.180Z,8.53
2023-05-09T20:40:43.445Z,8.47
2023-05-09T20:43:11.560Z,8.41
2023-05-09T20:45:39.728Z,8.37
2023-05-09T20:48:08.111Z,8.32
2023-05-09T20:50:36.092Z,8.27
2023-05-09T20:53:04.110Z,8.23
2023-05-09T20:55:32.008Z,8.20
2023-05-09T20:57:59.916Z,8.16
2023-05-09T21:00:28.282Z,8.10
2023-05-09T21:02:58.614Z,8.04
2023-05-09T21:05:26.924Z,7.99
2023-05-09T21:07:54.866Z,7.95
2023-05-09T21:10:22.872Z,7.91
2023-05-09T21:12:50.786Z,7.90
2023-05-09T21:15:18.757Z,7.91
2023-05-09T21:17:46.805Z,7.90
2023-05-09T21:20:14.978Z,7.90
2023-05-09T21:22:43.370Z,7.93
2023-05-09T21:25:12.667Z,7.94
2023-05-09T21:27:40.481Z,7.92
2023-05-09T21:30:08.938Z,7.89
2023-05-09T21:32:36.759Z,7.85
2023-05-09T21:35:07.295Z,7.81
2023-05-09T21:37:35.235Z,7.79
2023-05-09T21:40:05.724Z,7.78
2023-05-09T21:42:35.032Z,7.78
2023-05-09T21:45:03.845Z,7.78
2023-05-09T21:47:32.088Z,7.79
2023-05-09T21:50:00.766Z,7.80
2023-05-09T21:52:28.612Z,7.82
2023-05-09T21:54:56.383Z,7.83
2023-05-09T21:57:24.274Z,7.82
2023-05-09T21:59:53.537Z,7.82
2023-05-09T22:02:21.561Z,7.81
2023-05-09T22:04:49.507Z,7.81
2023-05-09T22:07:17.485Z,7.79
2023-05-09T22:09:45.425Z,7.76
2023-05-09T22:12:13.339Z,7.72
2023-05-09T22:14:52.620Z,7.65
2023-05-09T22:17:24.870Z,7.60
2023-05-09T22:19:53.207Z,7.55
2023-05-09T22:22:21.406Z,7.50
2023-05-09T22:24:49.817Z,7.44
2023-05-09T22:27:17.990Z,7.37
2023-05-09T22:29:46.781Z,7.30
2023-05-09T22:32:14.899Z,7.24
2023-05-09T22:34:43.116Z,7.17
2023-05-09T22:37:11.020Z,7.11
2023-05-09T22:39:39.293Z,7.05
2023-05-09T22:42:09.548Z,6.99
2023-05-09T22:44:37.414Z,6.94
2023-05-09T22:47:09.819Z,6.90
2023-05-09T22:49:37.768Z,6.92
2023-05-09T22:52:06.040Z,6.94
2023-05-09T22:54:34.275Z,6.98
2023-05-09T22:57:02.316Z,7.03
2023-05-09T22:59:30.283Z,7.07
2023-05-09T23:01:59.253Z,7.09
2023-05-09T23:04:27.293Z,7.12
2023-05-09T23:06:55.285Z,7.16
2023-05-09T23:09:23.435Z,7.19
2023-05-09T23:11:52.039Z,7.21
2023-05-09T23:14:19.973Z,7.21
2023-05-09T23:16:48.956Z,7.21
2023-05-09T23:19:17.295Z,7.20
2023-05-09T23:21:45.394Z,7.18
2023-05-09T23:24:13.266Z,7.14
2023-05-09T23:26:41.385Z,7.13
2023-05-09T23:29:09.571Z,7.11
2023-05-09T23:31:37.616Z,7.07
2023-05-09T23:34:05.810Z,7.06
2023-05-09T23:36:33.972Z,7.06
2023-05-09T23:39:02.048Z,7.07
2023-05-09T23:41:30.182Z,7.07
2023-05-09T23:43:59.605Z,7.09
2023-05-09T23:46:27.620Z,7.13
2023-05-09T23:48:56.323Z,7.15
2023-05-09T23:51:24.321Z,7.18
2023-05-09T23:53:52.385Z,7.19
2023-05-09T23:56:21.058Z,7.19
2023-05-09T23:58:49.050Z,7.19
